Ms Folla 2 — LLPD — position and weather

sailwx.info

Track history (hours):
 
Tides and Currents Weather Stations Pressure Air Temp Water Temp Dewpoint Dewpoint Depression Visibility Wind Speed Wind Dir Waves Ship Positions

Ms Folla 2

Last reported at 2017-Oct-22 11:30 UTC. Time now 2017-Oct-22 12:01 UTC.
Position N 68°45' E 017°07'.

Length 52 m; draft 5.5 m.

Type: Fishing. MMSI: 258253000.

Date/timePositionNaut miles runAvg speedWind from/ knotsBaromVisibWave heightAir tempDewpointWater temp
2017-Oct-22 11:30N 68°45' E 017°07'611.2
2017-Oct-22 11:00N 68°43' E 016°52'510.6
2017-Oct-22 10:30N 68°46' E 016°39'2 3.4
2017-Oct-22 10:00N 68°47' E 016°36'1 2.7
2017-Oct-22 09:30N 68°48' E 016°33'1 1.2
2017-Oct-22 09:00N 68°48' E 016°33'4 8.6
2017-Oct-22 08:29N 68°52' E 016°29'611.4
2017-Oct-22 08:00N 68°56' E 016°17'611.2
2017-Oct-22 07:30N 68°58' E 016°03'611.2
2017-Oct-22 07:00N 68°59' E 015°47'3 6.5
2017-Oct-22 06:30N 68°58' E 015°38'4 7.7
2017-Oct-22 06:00N 68°54' E 015°35'611.1
2017-Oct-22 05:29N 68°49' E 015°27'611.6
2017-Oct-22 05:00N 68°44' E 015°26'2 3.9
2017-Oct-22 04:30N 68°42' E 015°25'0 0.0
2017-Oct-22 04:00N 68°42' E 015°25'1 2.7
2017-Oct-22 03:29N 68°41' E 015°26'611.2
2017-Oct-22 03:00N 68°36' E 015°16'510.9
2017-Oct-22 02:30N 68°31' E 015°09'510.4
2017-Oct-22 02:00N 68°26' E 015°10'612.3
2017-Oct-22 01:30N 68°21' E 015°02'611.0
2017-Oct-22 00:59N 68°16' E 014°57'4 8.7
2017-Oct-22 00:30N 68°14' E 014°47'5 9.6
2017-Oct-22 00:00N 68°14' E 014°34'0 0.9
2017-Oct-21 23:30N 68°14' E 014°35'4 8.4
2017-Oct-21 23:00N 68°11' E 014°26'611.0
2017-Oct-21 22:29N 68°08' E 014°13'511.0
2017-Oct-21 22:00N 68°06' E 014°00'510.9
2017-Oct-21 21:30N 68°04' E 013°46'4 8.4
2017-Oct-21 21:00N 68°06' E 013°36'2 3.9
2017-Oct-21 20:30N 68°08' E 013°34'0 0.5
2017-Oct-21 20:00N 68°07' E 013°34'1 2.0
2017-Oct-21 19:30N 68°08' E 013°37'4 7.5
2017-Oct-21 19:00N 68°04' E 013°36'611.1
2017-Oct-21 18:30N 67°59' E 013°42'611.3
2017-Oct-21 18:00N 67°54' E 013°49'611.1
2017-Oct-21 17:30N 67°49' E 013°56'611.5
2017-Oct-21 17:00N 67°44' E 014°03'612.0
2017-Oct-21 16:30N 67°39' E 014°10'611.8
2017-Oct-21 16:00N 67°34' E 014°17'611.4
2017-Oct-21 15:30N 67°28' E 014°23'510.7
2017-Oct-21 15:00N 67°23' E 014°26'510.9
2017-Oct-21 14:30N 67°18' E 014°23'5 4.7
2017-Oct-21 13:30N 67°15' E 014°14'611.0
2017-Oct-21 13:00N 67°10' E 014°04'611.2
2017-Oct-21 12:30N 67°05' E 014°01'1 2.7
2017-Oct-21 12:00N 67°04' E 014°04'0 0.0
2017-Oct-21 11:30N 67°04' E 014°04'0 0.0
2017-Oct-21 11:00N 67°04' E 014°04'1 2.3
2017-Oct-21 10:30N 67°05' E 014°01'611.1
2017-Oct-21 10:00N 67°01' E 013°50'611.2
2017-Oct-21 09:30N 66°58' E 013°38'4 8.8
2017-Oct-21 09:00N 66°55' E 013°30'510.7
2017-Oct-21 08:30N 66°50' E 013°34'5 9.4
2017-Oct-21 08:00N 66°46' E 013°30'1 2.2
2017-Oct-21 07:30N 66°45' E 013°30'0 0.0
2017-Oct-21 07:00N 66°45' E 013°30'0 0.8
2017-Oct-21 06:30N 66°45' E 013°29'510.9
2017-Oct-21 06:00N 66°44' E 013°16'2 3.3
2017-Oct-21 05:30N 66°43' E 013°17'4 7.3
2017-Oct-21 05:00N 66°40' E 013°09'511.1
2017-Oct-21 04:30N 66°35' E 013°04'5 9.7
2017-Oct-21 04:00N 66°31' E 012°58'3 6.4
2017-Oct-21 03:29N 66°28' E 012°55'510.2
2017-Oct-21 03:00N 66°25' E 012°46'2 3.6
2017-Oct-21 02:30N 66°24' E 012°50'4 8.6
2017-Oct-21 02:00N 66°21' E 012°41'611.3
2017-Oct-21 01:30N 66°15' E 012°40'611.8
2017-Oct-21 01:00N 66°09' E 012°40'511.2
2017-Oct-21 00:30N 66°04' E 012°39'3 5.1
2017-Oct-21 00:00N 66°01' E 012°38'4 7.5
2017-Oct-20 23:29N 65°60' E 012°30'611.6
2017-Oct-20 23:00N 65°55' E 012°23'611.8
2017-Oct-20 22:30N 65°49' E 012°21'611.2
2017-Oct-20 22:00N 65°43' E 012°18'611.7
2017-Oct-20 21:30N 65°38' E 012°15'611.6
2017-Oct-20 20:59N 65°32' E 012°13'5 9.9
2017-Oct-20 20:30N 65°27' E 012°10'510.9
2017-Oct-20 20:00N 65°22' E 012°05'611.2
2017-Oct-20 19:30N 65°17' E 011°58'611.3
2017-Oct-20 19:00N 65°12' E 011°53'511.0
2017-Oct-20 18:30N 65°07' E 011°49'510.9
2017-Oct-20 18:00N 65°02' E 011°43'510.6
2017-Oct-20 17:30N 64°58' E 011°34'510.6
2017-Oct-20 17:00N 64°55' E 011°24'5 9.5
2017-Oct-20 16:31N 64°52' E 011°17'3 6.7
2017-Oct-20 16:00N 64°50' E 011°10'5 9.7
2017-Oct-20 15:30N 64°45' E 011°06'5 9.6
2017-Oct-20 15:00N 64°42' E 011°15'5 9.2
2017-Oct-20 14:30N 64°39' E 011°21'2 1.9
2017-Oct-20 13:30N 64°37' E 011°21'5 9.6
2017-Oct-20 13:00N 64°32' E 011°26'5 9.8
2017-Oct-20 12:30N 64°27' E 011°26'2 3.8
2017-Oct-20 11:59N 64°28' E 011°30'0 0.0
2017-Oct-20 11:30N 64°28' E 011°30'0 0.0
2017-Oct-20 10:59N 64°28' E 011°30'0 0.0
2017-Oct-20 10:30N 64°28' E 011°30'0 0.0
2017-Oct-20 10:00N 64°28' E 011°30'0 0.0
2017-Oct-20 09:30N 64°28' E 011°30'0 0.0
2017-Oct-20 09:00N 64°28' E 011°30'0 0.0
2017-Oct-20 08:30N 64°28' E 011°30'0 0.0
2017-Oct-20 08:00N 64°28' E 011°30'0 0.0
2017-Oct-20 07:30N 64°28' E 011°30'0 0.0
2017-Oct-20 07:00N 64°28' E 011°30'0 0.0
2017-Oct-20 06:30N 64°28' E 011°30'0 0.0
2017-Oct-20 06:00N 64°28' E 011°30'0 0.0
2017-Oct-20 05:30N 64°28' E 011°30'0 0.0
2017-Oct-20 05:00N 64°28' E 011°30'0 0.0
2017-Oct-20 04:30N 64°28' E 011°30'0 0.0
2017-Oct-20 04:00N 64°28' E 011°30'0 0.0
2017-Oct-20 03:30N 64°28' E 011°30'0 0.0
2017-Oct-20 03:00N 64°28' E 011°30'0 0.0
2017-Oct-20 02:30N 64°28' E 011°30'0 0.0
2017-Oct-20 02:00N 64°28' E 011°30'0 0.0
2017-Oct-20 01:30N 64°28' E 011°30'0 0.0
2017-Oct-20 01:00N 64°28' E 011°30'0 0.0
2017-Oct-20 00:30N 64°28' E 011°30'0 0.0
2017-Oct-20 00:00N 64°28' E 011°30'0 0.0
2017-Oct-19 23:30N 64°28' E 011°30'0 0.0
2017-Oct-19 22:59N 64°28' E 011°30'0 0.0
2017-Oct-19 22:29N 64°28' E 011°30'0 0.0
2017-Oct-19 22:00N 64°28' E 011°30'0 0.0
2017-Oct-19 21:30N 64°28' E 011°30'0 0.0
2017-Oct-19 20:59N 64°28' E 011°30'0 0.0
2017-Oct-19 20:30N 64°28' E 011°30'0 0.0
2017-Oct-19 20:00N 64°28' E 011°30'0 0.0
2017-Oct-19 19:30N 64°28' E 011°30'0 0.0
2017-Oct-19 19:00N 64°28' E 011°30'0 0.0
2017-Oct-19 18:30N 64°28' E 011°30'0 0.0
2017-Oct-19 17:59N 64°28' E 011°30'0 0.0
2017-Oct-19 17:30N 64°28' E 011°30'0 0.0
2017-Oct-19 17:00N 64°28' E 011°30'1 1.2
2017-Oct-19 16:30N 64°27' E 011°29'510.4
2017-Oct-19 16:00N 64°29' E 011°18'510.4
2017-Oct-19 15:30N 64°32' E 011°08'510.5
2017-Oct-19 14:59N 64°36' E 011°01'5 9.5
2017-Oct-19 14:30N 64°37' E 010°50'510.5
2017-Oct-19 14:00N 64°34' E 010°40'5 9.5
2017-Oct-19 13:30N 64°30' E 010°36'3 4.9
2017-Oct-19 13:00N 64°27' E 010°38'0 0.0
2017-Oct-19 12:30N 64°27' E 010°38'0 0.0
2017-Oct-19 12:00N 64°27' E 010°38'0 0.0
2017-Oct-19 11:30N 64°27' E 010°38'2 4.2
2017-Oct-19 11:00N 64°29' E 010°37'510.7
2017-Oct-19 10:30N 64°34' E 010°41'611.9
2017-Oct-19 10:00N 64°39' E 010°50'611.5
2017-Oct-19 09:30N 64°44' E 010°58'611.5
2017-Oct-19 09:00N 64°48' E 011°06'510.6
2017-Oct-19 08:30N 64°52' E 011°15'1 1.0
2017-Oct-19 08:00N 64°51' E 011°17'0 0.0
2017-Oct-19 07:30N 64°51' E 011°17'0 0.0
2017-Oct-19 07:00N 64°51' E 011°17'0 0.0
2017-Oct-19 06:30N 64°51' E 011°17'0 0.0
2017-Oct-19 06:00N 64°51' E 011°17'0 0.0
2017-Oct-19 05:30N 64°51' E 011°17'2 3.9
2017-Oct-19 05:00N 64°51' E 011°12'5 9.6
2017-Oct-19 04:30N 64°48' E 011°03'3 5.8
2017-Oct-19 04:00N 64°49' E 010°56'0 0.0
2017-Oct-19 03:30N 64°49' E 010°56'0 0.0
2017-Oct-19 03:00N 64°49' E 010°56'0 0.0
2017-Oct-19 02:30N 64°49' E 010°56'0 0.0
2017-Oct-19 01:59N 64°49' E 010°56'1 1.3
2017-Oct-19 01:30N 64°49' E 010°55'4 8.1
2017-Oct-19 01:00N 64°48' E 010°45'1 1.8
2017-Oct-19 00:30N 64°49' E 010°45'0 0.0
2017-Oct-19 00:00N 64°49' E 010°45'0 0.0
2017-Oct-18 23:30N 64°49' E 010°45'1 1.1
2017-Oct-18 23:00N 64°49' E 010°45'510.0
2017-Oct-18 22:30N 64°48' E 010°57'510.2
2017-Oct-18 22:00N 64°48' E 011°09'1 1.2
2017-Oct-18 21:30N 64°48' E 011°10'0 0.0
2017-Oct-18 20:59N 64°48' E 011°10'0 0.0
2017-Oct-18 20:30N 64°48' E 011°10'0 0.0
2017-Oct-18 20:00N 64°48' E 011°10'1 1.6
2017-Oct-18 19:30N 64°48' E 011°08'4 7.9
2017-Oct-18 19:00N 64°51' E 011°13'1 2.0
2017-Oct-18 18:30N 64°52' E 011°15'2 3.1
2017-Oct-18 18:00N 64°53' E 011°17'510.6
2017-Oct-18 17:30N 64°56' E 011°27'510.5
2017-Oct-18 17:00N 64°60' E 011°36'510.3
2017-Oct-18 16:30N 65°03' E 011°44'611.1
2017-Oct-18 16:00N 65°09' E 011°49'510.9
2017-Oct-18 15:30N 65°14' E 011°54'611.0
2017-Oct-18 15:00N 65°19' E 011°60'1110.9
2017-Oct-18 14:00N 65°28' E 012°12'5 9.4
2017-Oct-18 13:30N 65°33' E 012°13'611.1
2017-Oct-18 13:00N 65°39' E 012°14'611.1
2017-Oct-18 12:30N 65°44' E 012°17'511.2
2017-Oct-18 12:00N 65°49' E 012°21'510.8
2017-Oct-18 11:30N 65°55' E 012°22'510.9
2017-Oct-18 11:00N 65°59' E 012°29'510.9
2017-Oct-18 10:30N 66°04' E 012°38'510.6
2017-Oct-18 10:00N 66°08' E 012°46'510.7
2017-Oct-18 09:29N 66°13' E 012°52'511.0
2017-Oct-18 09:00N 66°18' E 012°55'510.6
2017-Oct-18 08:30N 66°23' E 012°58'611.0
2017-Oct-18 08:00N 66°28' E 012°59'5 9.7
2017-Oct-18 07:30N 66°33' E 013°03'510.5
2017-Oct-18 07:00N 66°38' E 013°06'611.0
2017-Oct-18 06:29N 66°43' E 013°11'510.2
2017-Oct-18 06:00N 66°48' E 013°14'3 5.7
2017-Oct-18 05:30N 66°51' E 013°18'510.8
2017-Oct-18 05:00N 66°55' E 013°28'5 9.1
2017-Oct-18 04:30N 66°58' E 013°34'510.8
2017-Oct-18 04:00N 67°02' E 013°45'510.8
2017-Oct-18 03:30N 67°05' E 013°55'510.3
2017-Oct-18 03:01N 67°09' E 014°02'510.5
2017-Oct-18 02:30N 67°14' E 014°09'510.6
2017-Oct-18 02:00N 67°18' E 014°17'5 9.9
2017-Oct-18 01:30N 67°23' E 014°22'0 0.9
2017-Oct-18 01:00N 67°23' E 014°23'0 0.0
2017-Oct-18 00:30N 67°23' E 014°23'0 0.0
2017-Oct-18 00:00N 67°23' E 014°23'0 0.0
2017-Oct-17 23:30N 67°23' E 014°23'3 5.6
2017-Oct-17 23:00N 67°25' E 014°28'510.4
2017-Oct-17 22:30N 67°30' E 014°31'510.3
2017-Oct-17 22:00N 67°36' E 014°31'510.0
2017-Oct-17 21:30N 67°41' E 014°31'5 9.9
2017-Oct-17 21:00N 67°45' E 014°31'5 9.6
2017-Oct-17 20:30N 67°50' E 014°37'5 9.9
2017-Oct-17 20:00N 67°54' E 014°45'510.0
2017-Oct-17 19:30N 67°59' E 014°49'5 9.9
2017-Oct-17 19:00N 68°03' E 014°51'5 9.9
2017-Oct-17 18:30N 68°08' E 014°54'510.6
2017-Oct-17 18:00N 68°14' E 014°56'510.8
2017-Oct-17 17:30N 68°19' E 014°58'611.1
2017-Oct-17 17:00N 68°24' E 015°06'611.6
2017-Oct-17 16:31N 68°29' E 015°13'5 9.6
2017-Oct-17 16:00N 68°34' E 015°10'510.7
2017-Oct-17 15:30N 68°37' E 015°21'510.3
2017-Oct-17 15:00N 68°42' E 015°26'510.8
2017-Oct-17 14:30N 68°48' E 015°25'510.8
2017-Oct-17 14:00N 68°53' E 015°24'510.7
2017-Oct-17 13:30N 68°58' E 015°23'5 9.6
2017-Oct-17 13:00N 69°02' E 015°13'5 9.4
2017-Oct-17 12:30N 69°01' E 015°00'510.1
2017-Oct-17 12:00N 68°56' E 014°60'2 3.3
2017-Oct-17 11:30N 68°55' E 015°04'0 0.0
2017-Oct-17 10:59N 68°55' E 015°04'0 0.0
2017-Oct-17 10:30N 68°55' E 015°04'0 0.0
2017-Oct-17 10:00N 68°55' E 015°04'0 0.0
2017-Oct-17 09:30N 68°55' E 015°04'0 0.0
2017-Oct-17 09:00N 68°55' E 015°04'0 0.0
2017-Oct-17 08:30N 68°55' E 015°04'0 0.0
2017-Oct-17 08:00N 68°55' E 015°04'0 0.0
2017-Oct-17 07:30N 68°55' E 015°04'0 0.0
2017-Oct-17 06:59N 68°55' E 015°04'0 0.0
2017-Oct-17 06:30N 68°55' E 015°04'0 0.0
2017-Oct-17 06:00N 68°55' E 015°04'0 0.0
2017-Oct-17 05:30N 68°55' E 015°04'0 0.0
2017-Oct-17 05:00N 68°55' E 015°04'0 0.0
2017-Oct-17 04:30N 68°55' E 015°04'0 0.0
2017-Oct-17 04:00N 68°55' E 015°04'0 0.0
2017-Oct-17 03:30N 68°55' E 015°04'0 0.0
2017-Oct-17 03:00N 68°55' E 015°04'0 0.0
2017-Oct-17 02:30N 68°55' E 015°04'0 0.0
2017-Oct-17 02:00N 68°55' E 015°04'0 0.0
2017-Oct-17 01:30N 68°55' E 015°04'0 0.0
2017-Oct-17 01:00N 68°55' E 015°04'0 0.0
2017-Oct-17 00:30N 68°55' E 015°04'0 0.0
2017-Oct-17 00:00N 68°55' E 015°04'0 0.0
2017-Oct-16 23:30N 68°55' E 015°04'0 0.0
2017-Oct-16 23:00N 68°55' E 015°04'1 2.3
2017-Oct-16 22:29N 68°55' E 015°01'510.6
2017-Oct-16 22:00N 69°00' E 014°59'4 9.0
2017-Oct-16 21:30N 69°02' E 015°11'510.3
2017-Oct-16 21:00N 68°57' E 015°19'611.4
2017-Oct-16 20:30N 68°52' E 015°25'611.8
2017-Oct-16 20:00N 68°46' E 015°25'4 8.8
2017-Oct-16 19:30N 68°42' E 015°25'1 1.6
2017-Oct-16 19:00N 68°43' E 015°26'611.1
2017-Oct-16 18:30N 68°48' E 015°26'611.4
2017-Oct-16 18:00N 68°53' E 015°33'510.2
2017-Oct-16 17:30N 68°58' E 015°38'2 4.8
2017-Oct-16 17:00N 68°59' E 015°45'611.2
2017-Oct-16 16:29N 68°60' E 016°01'611.6
2017-Oct-16 15:59N 69°01' E 016°16'611.2
2017-Oct-16 15:30N 69°01' E 016°32'611.1
2017-Oct-16 14:59N 69°00' E 016°47'1110.7
2017-Oct-16 14:00N 69°01' E 017°17'611.1
2017-Oct-16 13:30N 69°06' E 017°26'611.1
2017-Oct-16 13:00N 69°08' E 017°40'611.4
2017-Oct-16 12:29N 69°10' E 017°55'4 7.8
2017-Oct-16 11:59N 69°14' E 017°59'1 1.3
2017-Oct-16 11:30N 69°14' E 017°58'0 0.3
2017-Oct-16 11:00N 69°14' E 017°58'510.9
2017-Oct-16 10:30N 69°20' E 018°01'510.5
2017-Oct-16 10:00N 69°24' E 018°06'510.6
2017-Oct-16 09:30N 69°29' E 018°13'611.4
2017-Oct-16 08:59N 69°31' E 018°28'511.0
2017-Oct-16 08:30N 69°33' E 018°43'510.4
2017-Oct-16 08:00N 69°37' E 018°54'4 8.7
2017-Oct-16 07:30N 69°41' E 018°59'0 0.4
2017-Oct-16 07:00N 69°41' E 018°59'1 2.5
2017-Oct-16 06:30N 69°39' E 018°58'0 0.0
2017-Oct-16 05:59N 69°39' E 018°58'0 0.0
2017-Oct-16 05:30N 69°39' E 018°58'3 5.5
2017-Oct-16 05:00N 69°37' E 018°55'611.2
2017-Oct-16 04:30N 69°33' E 018°43'611.6
2017-Oct-16 03:59N 69°31' E 018°27'510.9
2017-Oct-16 03:30N 69°29' E 018°13'5 9.9
2017-Oct-16 03:00N 69°25' E 018°07'510.4
2017-Oct-16 02:29N 69°20' E 018°02'510.5
2017-Oct-16 02:00N 69°15' E 017°58'5 9.3
2017-Oct-16 01:30N 69°10' E 017°57'611.0
2017-Oct-16 01:00N 69°08' E 017°43'510.6
2017-Oct-16 00:30N 69°04' E 017°34'611.1
2017-Oct-16 00:00N 68°59' E 017°27'610.9
2017-Oct-15 23:30N 68°53' E 017°29'5 9.6
2017-Oct-15 23:00N 68°49' E 017°22'611.1
2017-Oct-15 22:30N 68°46' E 017°10'3 6.2
2017-Oct-15 22:00N 68°44' E 017°02'611.5
2017-Oct-15 21:30N 68°43' E 016°46'511.0
2017-Oct-15 21:00N 68°47' E 016°38'2 3.7
2017-Oct-15 20:30N 68°48' E 016°33'1 2.8
2017-Oct-15 20:00N 68°47' E 016°37'3 5.7
2017-Oct-15 19:30N 68°45' E 016°39'510.6
2017-Oct-15 19:00N 68°40' E 016°38'5 9.2
2017-Oct-15 18:30N 68°35' E 016°34'4 8.0
2017-Oct-15 18:00N 68°33' E 016°24'510.4
2017-Oct-15 17:30N 68°31' E 016°11'611.3
2017-Oct-15 17:00N 68°26' E 016°04'2 3.8
2017-Oct-15 16:30N 68°25' E 016°00'4 8.9
2017-Oct-15 16:00N 68°23' E 016°11'510.8
2017-Oct-15 15:30N 68°25' E 016°25'510.9
2017-Oct-15 15:00N 68°26' E 016°40'1111.3
2017-Oct-15 14:00N 68°26' E 017°11'510.7
2017-Oct-15 13:30N 68°26' E 017°25'0 0.2
2017-Oct-15 13:00N 68°26' E 017°25'4 8.1
2017-Oct-15 12:30N 68°25' E 017°14'611.2
2017-Oct-15 12:00N 68°23' E 017°00'3 6.8
2017-Oct-15 11:30N 68°21' E 016°53'4 8.4
2017-Oct-15 11:00N 68°25' E 016°49'611.2
2017-Oct-15 10:30N 68°25' E 016°34'611.6
2017-Oct-15 10:00N 68°24' E 016°19'611.4
2017-Oct-15 09:30N 68°22' E 016°05'611.2
2017-Oct-15 09:00N 68°19' E 015°51'611.4
2017-Oct-15 08:30N 68°17' E 015°37'611.2
2017-Oct-15 08:00N 68°14' E 015°24'611.2
2017-Oct-15 07:30N 68°13' E 015°09'510.7
2017-Oct-15 07:00N 68°13' E 014°54'510.6
2017-Oct-15 06:30N 68°14' E 014°40'2 4.4
2017-Oct-15 06:00N 68°14' E 014°35'1 1.1
2017-Oct-15 05:30N 68°14' E 014°34'510.0
2017-Oct-15 05:00N 68°11' E 014°22'510.9
2017-Oct-15 04:30N 68°08' E 014°11'510.8
2017-Oct-15 04:00N 68°06' E 013°57'611.0
2017-Oct-15 03:30N 68°04' E 013°43'3 6.8
2017-Oct-15 03:00N 68°06' E 013°36'1 2.8
2017-Oct-15 02:30N 68°08' E 013°34'0 0.0
2017-Oct-15 02:00N 68°08' E 013°34'1 1.8
2017-Oct-15 01:30N 68°08' E 013°37'0 0.0
2017-Oct-15 00:59N 68°08' E 013°37'0 0.0
2017-Oct-15 00:30N 68°08' E 013°37'2 3.1
2017-Oct-15 00:00N 68°06' E 013°36'510.4
2017-Oct-14 23:29N 68°01' E 013°40'511.2
2017-Oct-14 23:00N 67°57' E 013°47'511.1
2017-Oct-14 22:30N 67°52' E 013°53'510.8
2017-Oct-14 22:00N 67°47' E 013°59'510.7
2017-Oct-14 21:30N 67°42' E 014°06'611.1
2017-Oct-14 21:00N 67°37' E 014°12'611.1
2017-Oct-14 20:30N 67°32' E 014°19'510.8
2017-Oct-14 20:00N 67°27' E 014°25'510.8
2017-Oct-14 19:30N 67°22' E 014°24'5 9.3
2017-Oct-14 19:00N 67°17' E 014°23'1 2.2
2017-Oct-14 18:30N 67°17' E 014°20'0 0.6
2017-Oct-14 18:00N 67°16' E 014°21'0 0.0
2017-Oct-14 17:30N 67°16' E 014°21'0 0.0
2017-Oct-14 17:00N 67°16' E 014°21'0 0.0
2017-Oct-14 16:30N 67°16' E 014°21'5 9.1
2017-Oct-14 16:00N 67°13' E 014°12'611.8
2017-Oct-14 15:30N 67°09' E 014°02'4 8.6
2017-Oct-14 15:00N 67°05' E 014°04'0 0.3
2017-Oct-14 14:30N 67°04' E 014°04'0 0.0
2017-Oct-14 14:00N 67°04' E 014°04'0 0.0
2017-Oct-14 13:30N 67°04' E 014°04'0 0.0
2017-Oct-14 13:00N 67°04' E 014°04'0 0.0
2017-Oct-14 12:30N 67°04' E 014°04'3 6.1
2017-Oct-14 12:00N 67°03' E 013°56'611.3
2017-Oct-14 11:30N 66°60' E 013°45'510.9
2017-Oct-14 11:00N 66°58' E 013°32'5 9.5
2017-Oct-14 10:30N 66°53' E 013°32'5 9.1
2017-Oct-14 10:00N 66°49' E 013°30'4 7.8
2017-Oct-14 09:30N 66°45' E 013°30'0 0.0
2017-Oct-14 09:00N 66°45' E 013°30'0 0.0
2017-Oct-14 08:29N 66°45' E 013°30'0 0.0
2017-Oct-14 08:00N 66°45' E 013°30'4 7.4
2017-Oct-14 07:30N 66°44' E 013°21'510.0
2017-Oct-14 07:00N 66°42' E 013°10'611.5
2017-Oct-14 06:30N 66°37' E 013°04'5 9.8
2017-Oct-14 06:00N 66°32' E 012°58'510.8
2017-Oct-14 05:30N 66°28' E 012°49'5 9.6
2017-Oct-14 05:00N 66°24' E 012°49'1 1.6
2017-Oct-14 04:30N 66°23' E 012°47'510.5
2017-Oct-14 04:00N 66°19' E 012°40'611.6
2017-Oct-14 03:30N 66°13' E 012°39'611.5
2017-Oct-14 03:00N 66°07' E 012°40'611.2
2017-Oct-14 02:30N 66°02' E 012°38'0 0.7
2017-Oct-14 02:00N 66°02' E 012°38'5 9.9
2017-Oct-14 01:30N 65°59' E 012°29'611.2
2017-Oct-14 01:00N 65°54' E 012°22'611.4
2017-Oct-14 00:30N 65°48' E 012°20'611.5
2017-Oct-14 00:00N 65°42' E 012°16'611.7
2017-Oct-13 23:30N 65°37' E 012°14'611.5
2017-Oct-13 23:00N 65°31' E 012°12'5 9.3
2017-Oct-13 22:30N 65°26' E 012°10'611.0
2017-Oct-13 22:00N 65°21' E 012°04'611.3
2017-Oct-13 21:30N 65°17' E 011°58'611.4
2017-Oct-13 21:00N 65°11' E 011°52'611.3
2017-Oct-13 20:30N 65°06' E 011°48'611.3
2017-Oct-13 20:00N 65°01' E 011°41'510.5
2017-Oct-13 19:30N 64°58' E 011°32'611.1
2017-Oct-13 19:00N 64°54' E 011°22'3 6.9
2017-Oct-13 18:30N 64°52' E 011°17'4 8.9
2017-Oct-13 18:00N 64°49' E 011°09'510.0
2017-Oct-13 17:29N 64°44' E 011°07'611.3
2017-Oct-13 17:00N 64°38' E 011°09'510.8
2017-Oct-13 16:30N 64°35' E 011°19'510.6
2017-Oct-13 16:00N 64°31' E 011°27'4 7.4
2017-Oct-13 15:30N 64°27' E 011°29'1 1.0
2017-Oct-13 15:00N 64°28' E 011°30'0 0.0
2017-Oct-13 14:29N 64°28' E 011°30'0 0.0
2017-Oct-13 14:00N 64°28' E 011°30'0 0.0
2017-Oct-13 13:30N 64°28' E 011°30'0 0.0
2017-Oct-13 12:59N 64°28' E 011°30'0 0.0
2017-Oct-13 12:30N 64°28' E 011°30'0 0.0
2017-Oct-13 12:00N 64°28' E 011°30'0 0.0
2017-Oct-13 11:30N 64°28' E 011°30'0 0.0
2017-Oct-13 11:00N 64°28' E 011°30'0 0.0
2017-Oct-13 10:30N 64°28' E 011°30'0 0.0
2017-Oct-13 10:00N 64°28' E 011°30'0 0.0
2017-Oct-13 09:30N 64°28' E 011°30'0 0.0
2017-Oct-13 09:00N 64°28' E 011°30'0 0.5
2017-Oct-13 08:30N 64°27' E 011°30'510.2
2017-Oct-13 08:00N 64°29' E 011°19'710.3
2017-Oct-13 07:20N 64°33' E 011°07'310.5
2017-Oct-13 07:00N 64°36' E 011°01'9 3.3
2017-Oct-13 04:25N 64°42' E 010°47'511.0
2017-Oct-13 03:59N 64°46' E 010°52'3 7.1
2017-Oct-13 03:30N 64°49' E 010°56'0 0.0
2017-Oct-13 03:00N 64°49' E 010°56'0 0.0
2017-Oct-13 02:30N 64°49' E 010°56'0 0.5
2017-Oct-13 01:59N 64°49' E 010°56'2 4.9
2017-Oct-13 01:29N 64°48' E 010°50'3 1.0
2017-Oct-12 22:53N 64°49' E 010°45'3 7.3
2017-Oct-12 22:30N 64°48' E 010°51'510.5
2017-Oct-12 22:00N 64°48' E 011°03'3 5.6
2017-Oct-12 21:30N 64°48' E 011°10'0 0.0
2017-Oct-12 21:00N 64°48' E 011°10'0 0.0
2017-Oct-12 20:30N 64°48' E 011°10'0 0.0
2017-Oct-12 20:00N 64°48' E 011°10'1 2.7
2017-Oct-12 19:30N 64°48' E 011°07'510.3
2017-Oct-12 19:00N 64°52' E 011°14'0 0.2
2017-Oct-12 18:30N 64°52' E 011°15'2 4.2
2017-Oct-12 18:00N 64°53' E 011°18'611.1
2017-Oct-12 17:30N 64°57' E 011°28'511.0
2017-Oct-12 17:00N 65°00' E 011°38'510.8
2017-Oct-12 16:30N 65°05' E 011°46'611.0
2017-Oct-12 15:59N 65°10' E 011°51'511.1
2017-Oct-12 15:30N 65°15' E 011°56'510.9
2017-Oct-12 15:00N 65°20' E 012°01'4 8.5
2017-Oct-12 14:30N 65°24' E 011°58'4 8.7
2017-Oct-12 14:00N 65°28' E 012°00'510.7
2017-Oct-12 13:30N 65°32' E 012°09'1 1.3
2017-Oct-12 12:59N 65°33' E 012°07'0 0.0
2017-Oct-12 12:30N 65°33' E 012°07'2 4.2
2017-Oct-12 12:00N 65°35' E 012°09'510.4
2017-Oct-12 11:30N 65°40' E 012°14'  
Track history (hours):
 
Tides and Currents Weather Stations Pressure Air Temp Water Temp Dewpoint Dewpoint Depression Visibility Wind Speed Wind Dir Waves Ship Positions

Ms Folla 2

Last reported at 2017-Oct-22 11:30 UTC. Time now 2017-Oct-22 12:01 UTC.
Position N 68°45' E 017°07'.

Length 52 m; draft 5.5 m.

Type: Fishing. MMSI: 258253000.

Date/timePositionNaut miles runAvg speedWind from/ knotsBaromVisibWave heightAir tempDewpointWater temp
2017-Oct-22 11:30N 68°45' E 017°07'611.2
2017-Oct-22 11:00N 68°43' E 016°52'510.6
2017-Oct-22 10:30N 68°46' E 016°39'2 3.4
2017-Oct-22 10:00N 68°47' E 016°36'1 2.7
2017-Oct-22 09:30N 68°48' E 016°33'1 1.2
2017-Oct-22 09:00N 68°48' E 016°33'4 8.6
2017-Oct-22 08:29N 68°52' E 016°29'611.4
2017-Oct-22 08:00N 68°56' E 016°17'611.2
2017-Oct-22 07:30N 68°58' E 016°03'611.2
2017-Oct-22 07:00N 68°59' E 015°47'3 6.5
2017-Oct-22 06:30N 68°58' E 015°38'4 7.7
2017-Oct-22 06:00N 68°54' E 015°35'611.1
2017-Oct-22 05:29N 68°49' E 015°27'611.6
2017-Oct-22 05:00N 68°44' E 015°26'2 3.9
2017-Oct-22 04:30N 68°42' E 015°25'0 0.0
2017-Oct-22 04:00N 68°42' E 015°25'1 2.7
2017-Oct-22 03:29N 68°41' E 015°26'611.2
2017-Oct-22 03:00N 68°36' E 015°16'510.9
2017-Oct-22 02:30N 68°31' E 015°09'510.4
2017-Oct-22 02:00N 68°26' E 015°10'612.3
2017-Oct-22 01:30N 68°21' E 015°02'611.0
2017-Oct-22 00:59N 68°16' E 014°57'4 8.7
2017-Oct-22 00:30N 68°14' E 014°47'5 9.6
2017-Oct-22 00:00N 68°14' E 014°34'0 0.9
2017-Oct-21 23:30N 68°14' E 014°35'4 8.4
2017-Oct-21 23:00N 68°11' E 014°26'611.0
2017-Oct-21 22:29N 68°08' E 014°13'511.0
2017-Oct-21 22:00N 68°06' E 014°00'510.9
2017-Oct-21 21:30N 68°04' E 013°46'4 8.4
2017-Oct-21 21:00N 68°06' E 013°36'2 3.9
2017-Oct-21 20:30N 68°08' E 013°34'0 0.5
2017-Oct-21 20:00N 68°07' E 013°34'1 2.0
2017-Oct-21 19:30N 68°08' E 013°37'4 7.5
2017-Oct-21 19:00N 68°04' E 013°36'611.1
2017-Oct-21 18:30N 67°59' E 013°42'611.3
2017-Oct-21 18:00N 67°54' E 013°49'611.1
2017-Oct-21 17:30N 67°49' E 013°56'611.5
2017-Oct-21 17:00N 67°44' E 014°03'612.0
2017-Oct-21 16:30N 67°39' E 014°10'611.8
2017-Oct-21 16:00N 67°34' E 014°17'611.4
2017-Oct-21 15:30N 67°28' E 014°23'510.7
2017-Oct-21 15:00N 67°23' E 014°26'510.9
2017-Oct-21 14:30N 67°18' E 014°23'5 4.7
2017-Oct-21 13:30N 67°15' E 014°14'611.0
2017-Oct-21 13:00N 67°10' E 014°04'611.2
2017-Oct-21 12:30N 67°05' E 014°01'1 2.7
2017-Oct-21 12:00N 67°04' E 014°04'0 0.0
2017-Oct-21 11:30N 67°04' E 014°04'0 0.0
2017-Oct-21 11:00N 67°04' E 014°04'1 2.3
2017-Oct-21 10:30N 67°05' E 014°01'611.1
2017-Oct-21 10:00N 67°01' E 013°50'611.2
2017-Oct-21 09:30N 66°58' E 013°38'4 8.8
2017-Oct-21 09:00N 66°55' E 013°30'510.7
2017-Oct-21 08:30N 66°50' E 013°34'5 9.4
2017-Oct-21 08:00N 66°46' E 013°30'1 2.2
2017-Oct-21 07:30N 66°45' E 013°30'0 0.0
2017-Oct-21 07:00N 66°45' E 013°30'0 0.8
2017-Oct-21 06:30N 66°45' E 013°29'510.9
2017-Oct-21 06:00N 66°44' E 013°16'2 3.3
2017-Oct-21 05:30N 66°43' E 013°17'4 7.3
2017-Oct-21 05:00N 66°40' E 013°09'511.1
2017-Oct-21 04:30N 66°35' E 013°04'5 9.7
2017-Oct-21 04:00N 66°31' E 012°58'3 6.4
2017-Oct-21 03:29N 66°28' E 012°55'510.2
2017-Oct-21 03:00N 66°25' E 012°46'2 3.6
2017-Oct-21 02:30N 66°24' E 012°50'4 8.6
2017-Oct-21 02:00N 66°21' E 012°41'611.3
2017-Oct-21 01:30N 66°15' E 012°40'611.8
2017-Oct-21 01:00N 66°09' E 012°40'511.2
2017-Oct-21 00:30N 66°04' E 012°39'3 5.1
2017-Oct-21 00:00N 66°01' E 012°38'4 7.5
2017-Oct-20 23:29N 65°60' E 012°30'611.6
2017-Oct-20 23:00N 65°55' E 012°23'611.8
2017-Oct-20 22:30N 65°49' E 012°21'611.2
2017-Oct-20 22:00N 65°43' E 012°18'611.7
2017-Oct-20 21:30N 65°38' E 012°15'611.6
2017-Oct-20 20:59N 65°32' E 012°13'5 9.9
2017-Oct-20 20:30N 65°27' E 012°10'510.9
2017-Oct-20 20:00N 65°22' E 012°05'611.2
2017-Oct-20 19:30N 65°17' E 011°58'611.3
2017-Oct-20 19:00N 65°12' E 011°53'511.0
2017-Oct-20 18:30N 65°07' E 011°49'510.9
2017-Oct-20 18:00N 65°02' E 011°43'510.6
2017-Oct-20 17:30N 64°58' E 011°34'510.6
2017-Oct-20 17:00N 64°55' E 011°24'5 9.5
2017-Oct-20 16:31N 64°52' E 011°17'3 6.7
2017-Oct-20 16:00N 64°50' E 011°10'5 9.7
2017-Oct-20 15:30N 64°45' E 011°06'5 9.6
2017-Oct-20 15:00N 64°42' E 011°15'5 9.2
2017-Oct-20 14:30N 64°39' E 011°21'2 1.9
2017-Oct-20 13:30N 64°37' E 011°21'5 9.6
2017-Oct-20 13:00N 64°32' E 011°26'5 9.8
2017-Oct-20 12:30N 64°27' E 011°26'2 3.8
2017-Oct-20 11:59N 64°28' E 011°30'0 0.0
2017-Oct-20 11:30N 64°28' E 011°30'0 0.0
2017-Oct-20 10:59N 64°28' E 011°30'0 0.0
2017-Oct-20 10:30N 64°28' E 011°30'0 0.0
2017-Oct-20 10:00N 64°28' E 011°30'0 0.0
2017-Oct-20 09:30N 64°28' E 011°30'0 0.0
2017-Oct-20 09:00N 64°28' E 011°30'0 0.0
2017-Oct-20 08:30N 64°28' E 011°30'0 0.0
2017-Oct-20 08:00N 64°28' E 011°30'0 0.0
2017-Oct-20 07:30N 64°28' E 011°30'0 0.0
2017-Oct-20 07:00N 64°28' E 011°30'0 0.0
2017-Oct-20 06:30N 64°28' E 011°30'0 0.0
2017-Oct-20 06:00N 64°28' E 011°30'0 0.0
2017-Oct-20 05:30N 64°28' E 011°30'0 0.0
2017-Oct-20 05:00N 64°28' E 011°30'0 0.0
2017-Oct-20 04:30N 64°28' E 011°30'0 0.0
2017-Oct-20 04:00N 64°28' E 011°30'0 0.0
2017-Oct-20 03:30N 64°28' E 011°30'0 0.0
2017-Oct-20 03:00N 64°28' E 011°30'0 0.0
2017-Oct-20 02:30N 64°28' E 011°30'0 0.0
2017-Oct-20 02:00N 64°28' E 011°30'0 0.0
2017-Oct-20 01:30N 64°28' E 011°30'0 0.0
2017-Oct-20 01:00N 64°28' E 011°30'0 0.0
2017-Oct-20 00:30N 64°28' E 011°30'0 0.0
2017-Oct-20 00:00N 64°28' E 011°30'0 0.0
2017-Oct-19 23:30N 64°28' E 011°30'0 0.0
2017-Oct-19 22:59N 64°28' E 011°30'0 0.0
2017-Oct-19 22:29N 64°28' E 011°30'0 0.0
2017-Oct-19 22:00N 64°28' E 011°30'0 0.0
2017-Oct-19 21:30N 64°28' E 011°30'0 0.0
2017-Oct-19 20:59N 64°28' E 011°30'0 0.0
2017-Oct-19 20:30N 64°28' E 011°30'0 0.0
2017-Oct-19 20:00N 64°28' E 011°30'0 0.0
2017-Oct-19 19:30N 64°28' E 011°30'0 0.0
2017-Oct-19 19:00N 64°28' E 011°30'0 0.0
2017-Oct-19 18:30N 64°28' E 011°30'0 0.0
2017-Oct-19 17:59N 64°28' E 011°30'0 0.0
2017-Oct-19 17:30N 64°28' E 011°30'0 0.0
2017-Oct-19 17:00N 64°28' E 011°30'1 1.2
2017-Oct-19 16:30N 64°27' E 011°29'510.4
2017-Oct-19 16:00N 64°29' E 011°18'510.4
2017-Oct-19 15:30N 64°32' E 011°08'510.5
2017-Oct-19 14:59N 64°36' E 011°01'5 9.5
2017-Oct-19 14:30N 64°37' E 010°50'510.5
2017-Oct-19 14:00N 64°34' E 010°40'5 9.5
2017-Oct-19 13:30N 64°30' E 010°36'3 4.9
2017-Oct-19 13:00N 64°27' E 010°38'0 0.0
2017-Oct-19 12:30N 64°27' E 010°38'0 0.0
2017-Oct-19 12:00N 64°27' E 010°38'0 0.0
2017-Oct-19 11:30N 64°27' E 010°38'2 4.2
2017-Oct-19 11:00N 64°29' E 010°37'510.7
2017-Oct-19 10:30N 64°34' E 010°41'611.9
2017-Oct-19 10:00N 64°39' E 010°50'611.5
2017-Oct-19 09:30N 64°44' E 010°58'611.5
2017-Oct-19 09:00N 64°48' E 011°06'510.6
2017-Oct-19 08:30N 64°52' E 011°15'1 1.0
2017-Oct-19 08:00N 64°51' E 011°17'0 0.0
2017-Oct-19 07:30N 64°51' E 011°17'0 0.0
2017-Oct-19 07:00N 64°51' E 011°17'0 0.0
2017-Oct-19 06:30N 64°51' E 011°17'0 0.0
2017-Oct-19 06:00N 64°51' E 011°17'0 0.0
2017-Oct-19 05:30N 64°51' E 011°17'2 3.9
2017-Oct-19 05:00N 64°51' E 011°12'5 9.6
2017-Oct-19 04:30N 64°48' E 011°03'3 5.8
2017-Oct-19 04:00N 64°49' E 010°56'0 0.0
2017-Oct-19 03:30N 64°49' E 010°56'0 0.0
2017-Oct-19 03:00N 64°49' E 010°56'0 0.0
2017-Oct-19 02:30N 64°49' E 010°56'0 0.0
2017-Oct-19 01:59N 64°49' E 010°56'1 1.3
2017-Oct-19 01:30N 64°49' E 010°55'4 8.1
2017-Oct-19 01:00N 64°48' E 010°45'1 1.8
2017-Oct-19 00:30N 64°49' E 010°45'0 0.0
2017-Oct-19 00:00N 64°49' E 010°45'0 0.0
2017-Oct-18 23:30N 64°49' E 010°45'1 1.1
2017-Oct-18 23:00N 64°49' E 010°45'510.0
2017-Oct-18 22:30N 64°48' E 010°57'510.2
2017-Oct-18 22:00N 64°48' E 011°09'1 1.2
2017-Oct-18 21:30N 64°48' E 011°10'0 0.0
2017-Oct-18 20:59N 64°48' E 011°10'0 0.0
2017-Oct-18 20:30N 64°48' E 011°10'0 0.0
2017-Oct-18 20:00N 64°48' E 011°10'1 1.6
2017-Oct-18 19:30N 64°48' E 011°08'4 7.9
2017-Oct-18 19:00N 64°51' E 011°13'1 2.0
2017-Oct-18 18:30N 64°52' E 011°15'2 3.1
2017-Oct-18 18:00N 64°53' E 011°17'510.6
2017-Oct-18 17:30N 64°56' E 011°27'510.5
2017-Oct-18 17:00N 64°60' E 011°36'510.3
2017-Oct-18 16:30N 65°03' E 011°44'611.1
2017-Oct-18 16:00N 65°09' E 011°49'510.9
2017-Oct-18 15:30N 65°14' E 011°54'611.0
2017-Oct-18 15:00N 65°19' E 011°60'1110.9
2017-Oct-18 14:00N 65°28' E 012°12'5 9.4
2017-Oct-18 13:30N 65°33' E 012°13'611.1
2017-Oct-18 13:00N 65°39' E 012°14'611.1
2017-Oct-18 12:30N 65°44' E 012°17'511.2
2017-Oct-18 12:00N 65°49' E 012°21'510.8
2017-Oct-18 11:30N 65°55' E 012°22'510.9
2017-Oct-18 11:00N 65°59' E 012°29'510.9
2017-Oct-18 10:30N 66°04' E 012°38'510.6
2017-Oct-18 10:00N 66°08' E 012°46'510.7
2017-Oct-18 09:29N 66°13' E 012°52'511.0
2017-Oct-18 09:00N 66°18' E 012°55'510.6
2017-Oct-18 08:30N 66°23' E 012°58'611.0
2017-Oct-18 08:00N 66°28' E 012°59'5 9.7
2017-Oct-18 07:30N 66°33' E 013°03'510.5
2017-Oct-18 07:00N 66°38' E 013°06'611.0
2017-Oct-18 06:29N 66°43' E 013°11'510.2
2017-Oct-18 06:00N 66°48' E 013°14'3 5.7
2017-Oct-18 05:30N 66°51' E 013°18'510.8
2017-Oct-18 05:00N 66°55' E 013°28'5 9.1
2017-Oct-18 04:30N 66°58' E 013°34'510.8
2017-Oct-18 04:00N 67°02' E 013°45'510.8
2017-Oct-18 03:30N 67°05' E 013°55'510.3
2017-Oct-18 03:01N 67°09' E 014°02'510.5
2017-Oct-18 02:30N 67°14' E 014°09'510.6
2017-Oct-18 02:00N 67°18' E 014°17'5 9.9
2017-Oct-18 01:30N 67°23' E 014°22'0 0.9
2017-Oct-18 01:00N 67°23' E 014°23'0 0.0
2017-Oct-18 00:30N 67°23' E 014°23'0 0.0
2017-Oct-18 00:00N 67°23' E 014°23'0 0.0
2017-Oct-17 23:30N 67°23' E 014°23'3 5.6
2017-Oct-17 23:00N 67°25' E 014°28'510.4
2017-Oct-17 22:30N 67°30' E 014°31'510.3
2017-Oct-17 22:00N 67°36' E 014°31'510.0
2017-Oct-17 21:30N 67°41' E 014°31'5 9.9
2017-Oct-17 21:00N 67°45' E 014°31'5 9.6
2017-Oct-17 20:30N 67°50' E 014°37'5 9.9
2017-Oct-17 20:00N 67°54' E 014°45'510.0
2017-Oct-17 19:30N 67°59' E 014°49'5 9.9
2017-Oct-17 19:00N 68°03' E 014°51'5 9.9
2017-Oct-17 18:30N 68°08' E 014°54'510.6
2017-Oct-17 18:00N 68°14' E 014°56'510.8
2017-Oct-17 17:30N 68°19' E 014°58'611.1
2017-Oct-17 17:00N 68°24' E 015°06'611.6
2017-Oct-17 16:31N 68°29' E 015°13'5 9.6
2017-Oct-17 16:00N 68°34' E 015°10'510.7
2017-Oct-17 15:30N 68°37' E 015°21'510.3
2017-Oct-17 15:00N 68°42' E 015°26'510.8
2017-Oct-17 14:30N 68°48' E 015°25'510.8
2017-Oct-17 14:00N 68°53' E 015°24'510.7
2017-Oct-17 13:30N 68°58' E 015°23'5 9.6
2017-Oct-17 13:00N 69°02' E 015°13'5 9.4
2017-Oct-17 12:30N 69°01' E 015°00'510.1
2017-Oct-17 12:00N 68°56' E 014°60'2 3.3
2017-Oct-17 11:30N 68°55' E 015°04'0 0.0
2017-Oct-17 10:59N 68°55' E 015°04'0 0.0
2017-Oct-17 10:30N 68°55' E 015°04'0 0.0
2017-Oct-17 10:00N 68°55' E 015°04'0 0.0
2017-Oct-17 09:30N 68°55' E 015°04'0 0.0
2017-Oct-17 09:00N 68°55' E 015°04'0 0.0
2017-Oct-17 08:30N 68°55' E 015°04'0 0.0
2017-Oct-17 08:00N 68°55' E 015°04'0 0.0
2017-Oct-17 07:30N 68°55' E 015°04'0 0.0
2017-Oct-17 06:59N 68°55' E 015°04'0 0.0
2017-Oct-17 06:30N 68°55' E 015°04'0 0.0
2017-Oct-17 06:00N 68°55' E 015°04'0 0.0
2017-Oct-17 05:30N 68°55' E 015°04'0 0.0
2017-Oct-17 05:00N 68°55' E 015°04'0 0.0
2017-Oct-17 04:30N 68°55' E 015°04'0 0.0
2017-Oct-17 04:00N 68°55' E 015°04'0 0.0
2017-Oct-17 03:30N 68°55' E 015°04'0 0.0
2017-Oct-17 03:00N 68°55' E 015°04'0 0.0
2017-Oct-17 02:30N 68°55' E 015°04'0 0.0
2017-Oct-17 02:00N 68°55' E 015°04'0 0.0
2017-Oct-17 01:30N 68°55' E 015°04'0 0.0
2017-Oct-17 01:00N 68°55' E 015°04'0 0.0
2017-Oct-17 00:30N 68°55' E 015°04'0 0.0
2017-Oct-17 00:00N 68°55' E 015°04'0 0.0
2017-Oct-16 23:30N 68°55' E 015°04'0 0.0
2017-Oct-16 23:00N 68°55' E 015°04'1 2.3
2017-Oct-16 22:29N 68°55' E 015°01'510.6
2017-Oct-16 22:00N 69°00' E 014°59'4 9.0
2017-Oct-16 21:30N 69°02' E 015°11'510.3
2017-Oct-16 21:00N 68°57' E 015°19'611.4
2017-Oct-16 20:30N 68°52' E 015°25'611.8
2017-Oct-16 20:00N 68°46' E 015°25'4 8.8
2017-Oct-16 19:30N 68°42' E 015°25'1 1.6
2017-Oct-16 19:00N 68°43' E 015°26'611.1
2017-Oct-16 18:30N 68°48' E 015°26'611.4
2017-Oct-16 18:00N 68°53' E 015°33'510.2
2017-Oct-16 17:30N 68°58' E 015°38'2 4.8
2017-Oct-16 17:00N 68°59' E 015°45'611.2
2017-Oct-16 16:29N 68°60' E 016°01'611.6
2017-Oct-16 15:59N 69°01' E 016°16'611.2
2017-Oct-16 15:30N 69°01' E 016°32'611.1
2017-Oct-16 14:59N 69°00' E 016°47'1110.7
2017-Oct-16 14:00N 69°01' E 017°17'611.1
2017-Oct-16 13:30N 69°06' E 017°26'611.1
2017-Oct-16 13:00N 69°08' E 017°40'611.4
2017-Oct-16 12:29N 69°10' E 017°55'4 7.8
2017-Oct-16 11:59N 69°14' E 017°59'1 1.3
2017-Oct-16 11:30N 69°14' E 017°58'0 0.3
2017-Oct-16 11:00N 69°14' E 017°58'510.9
2017-Oct-16 10:30N 69°20' E 018°01'510.5
2017-Oct-16 10:00N 69°24' E 018°06'510.6
2017-Oct-16 09:30N 69°29' E 018°13'611.4
2017-Oct-16 08:59N 69°31' E 018°28'511.0
2017-Oct-16 08:30N 69°33' E 018°43'510.4
2017-Oct-16 08:00N 69°37' E 018°54'4 8.7
2017-Oct-16 07:30N 69°41' E 018°59'0 0.4
2017-Oct-16 07:00N 69°41' E 018°59'1 2.5
2017-Oct-16 06:30N 69°39' E 018°58'0 0.0
2017-Oct-16 05:59N 69°39' E 018°58'0 0.0
2017-Oct-16 05:30N 69°39' E 018°58'3 5.5
2017-Oct-16 05:00N 69°37' E 018°55'611.2
2017-Oct-16 04:30N 69°33' E 018°43'611.6
2017-Oct-16 03:59N 69°31' E 018°27'510.9
2017-Oct-16 03:30N 69°29' E 018°13'5 9.9
2017-Oct-16 03:00N 69°25' E 018°07'510.4
2017-Oct-16 02:29N 69°20' E 018°02'510.5
2017-Oct-16 02:00N 69°15' E 017°58'5 9.3
2017-Oct-16 01:30N 69°10' E 017°57'611.0
2017-Oct-16 01:00N 69°08' E 017°43'510.6
2017-Oct-16 00:30N 69°04' E 017°34'611.1
2017-Oct-16 00:00N 68°59' E 017°27'610.9
2017-Oct-15 23:30N 68°53' E 017°29'5 9.6
2017-Oct-15 23:00N 68°49' E 017°22'611.1
2017-Oct-15 22:30N 68°46' E 017°10'3 6.2
2017-Oct-15 22:00N 68°44' E 017°02'611.5
2017-Oct-15 21:30N 68°43' E 016°46'511.0
2017-Oct-15 21:00N 68°47' E 016°38'2 3.7
2017-Oct-15 20:30N 68°48' E 016°33'1 2.8
2017-Oct-15 20:00N 68°47' E 016°37'3 5.7
2017-Oct-15 19:30N 68°45' E 016°39'510.6
2017-Oct-15 19:00N 68°40' E 016°38'5 9.2
2017-Oct-15 18:30N 68°35' E 016°34'4 8.0
2017-Oct-15 18:00N 68°33' E 016°24'510.4
2017-Oct-15 17:30N 68°31' E 016°11'611.3
2017-Oct-15 17:00N 68°26' E 016°04'2 3.8
2017-Oct-15 16:30N 68°25' E 016°00'4 8.9
2017-Oct-15 16:00N 68°23' E 016°11'510.8
2017-Oct-15 15:30N 68°25' E 016°25'510.9
2017-Oct-15 15:00N 68°26' E 016°40'1111.3
2017-Oct-15 14:00N 68°26' E 017°11'510.7
2017-Oct-15 13:30N 68°26' E 017°25'0 0.2
2017-Oct-15 13:00N 68°26' E 017°25'4 8.1
2017-Oct-15 12:30N 68°25' E 017°14'611.2
2017-Oct-15 12:00N 68°23' E 017°00'3 6.8
2017-Oct-15 11:30N 68°21' E 016°53'4 8.4
2017-Oct-15 11:00N 68°25' E 016°49'611.2
2017-Oct-15 10:30N 68°25' E 016°34'611.6
2017-Oct-15 10:00N 68°24' E 016°19'611.4
2017-Oct-15 09:30N 68°22' E 016°05'611.2
2017-Oct-15 09:00N 68°19' E 015°51'611.4
2017-Oct-15 08:30N 68°17' E 015°37'611.2
2017-Oct-15 08:00N 68°14' E 015°24'611.2
2017-Oct-15 07:30N 68°13' E 015°09'510.7
2017-Oct-15 07:00N 68°13' E 014°54'510.6
2017-Oct-15 06:30N 68°14' E 014°40'2 4.4
2017-Oct-15 06:00N 68°14' E 014°35'1 1.1
2017-Oct-15 05:30N 68°14' E 014°34'510.0
2017-Oct-15 05:00N 68°11' E 014°22'510.9
2017-Oct-15 04:30N 68°08' E 014°11'510.8
2017-Oct-15 04:00N 68°06' E 013°57'611.0
2017-Oct-15 03:30N 68°04' E 013°43'3 6.8
2017-Oct-15 03:00N 68°06' E 013°36'1 2.8
2017-Oct-15 02:30N 68°08' E 013°34'0 0.0
2017-Oct-15 02:00N 68°08' E 013°34'1 1.8
2017-Oct-15 01:30N 68°08' E 013°37'0 0.0
2017-Oct-15 00:59N 68°08' E 013°37'0 0.0
2017-Oct-15 00:30N 68°08' E 013°37'2 3.1
2017-Oct-15 00:00N 68°06' E 013°36'510.4
2017-Oct-14 23:29N 68°01' E 013°40'511.2
2017-Oct-14 23:00N 67°57' E 013°47'511.1
2017-Oct-14 22:30N 67°52' E 013°53'510.8
2017-Oct-14 22:00N 67°47' E 013°59'510.7
2017-Oct-14 21:30N 67°42' E 014°06'611.1
2017-Oct-14 21:00N 67°37' E 014°12'611.1
2017-Oct-14 20:30N 67°32' E 014°19'510.8
2017-Oct-14 20:00N 67°27' E 014°25'510.8
2017-Oct-14 19:30N 67°22' E 014°24'5 9.3
2017-Oct-14 19:00N 67°17' E 014°23'1 2.2
2017-Oct-14 18:30N 67°17' E 014°20'0 0.6
2017-Oct-14 18:00N 67°16' E 014°21'0 0.0
2017-Oct-14 17:30N 67°16' E 014°21'0 0.0
2017-Oct-14 17:00N 67°16' E 014°21'0 0.0
2017-Oct-14 16:30N 67°16' E 014°21'5 9.1
2017-Oct-14 16:00N 67°13' E 014°12'611.8
2017-Oct-14 15:30N 67°09' E 014°02'4 8.6
2017-Oct-14 15:00N 67°05' E 014°04'0 0.3
2017-Oct-14 14:30N 67°04' E 014°04'0 0.0
2017-Oct-14 14:00N 67°04' E 014°04'0 0.0
2017-Oct-14 13:30N 67°04' E 014°04'0 0.0
2017-Oct-14 13:00N 67°04' E 014°04'0 0.0
2017-Oct-14 12:30N 67°04' E 014°04'3 6.1
2017-Oct-14 12:00N 67°03' E 013°56'611.3
2017-Oct-14 11:30N 66°60' E 013°45'510.9
2017-Oct-14 11:00N 66°58' E 013°32'5 9.5
2017-Oct-14 10:30N 66°53' E 013°32'5 9.1
2017-Oct-14 10:00N 66°49' E 013°30'4 7.8
2017-Oct-14 09:30N 66°45' E 013°30'0 0.0
2017-Oct-14 09:00N 66°45' E 013°30'0 0.0
2017-Oct-14 08:29N 66°45' E 013°30'0 0.0
2017-Oct-14 08:00N 66°45' E 013°30'4 7.4
2017-Oct-14 07:30N 66°44' E 013°21'510.0
2017-Oct-14 07:00N 66°42' E 013°10'611.5
2017-Oct-14 06:30N 66°37' E 013°04'5 9.8
2017-Oct-14 06:00N 66°32' E 012°58'510.8
2017-Oct-14 05:30N 66°28' E 012°49'5 9.6
2017-Oct-14 05:00N 66°24' E 012°49'1 1.6
2017-Oct-14 04:30N 66°23' E 012°47'510.5
2017-Oct-14 04:00N 66°19' E 012°40'611.6
2017-Oct-14 03:30N 66°13' E 012°39'611.5
2017-Oct-14 03:00N 66°07' E 012°40'611.2
2017-Oct-14 02:30N 66°02' E 012°38'0 0.7
2017-Oct-14 02:00N 66°02' E 012°38'5 9.9
2017-Oct-14 01:30N 65°59' E 012°29'611.2
2017-Oct-14 01:00N 65°54' E 012°22'611.4
2017-Oct-14 00:30N 65°48' E 012°20'611.5
2017-Oct-14 00:00N 65°42' E 012°16'611.7
2017-Oct-13 23:30N 65°37' E 012°14'611.5
2017-Oct-13 23:00N 65°31' E 012°12'5 9.3
2017-Oct-13 22:30N 65°26' E 012°10'611.0
2017-Oct-13 22:00N 65°21' E 012°04'611.3
2017-Oct-13 21:30N 65°17' E 011°58'611.4
2017-Oct-13 21:00N 65°11' E 011°52'611.3
2017-Oct-13 20:30N 65°06' E 011°48'611.3
2017-Oct-13 20:00N 65°01' E 011°41'510.5
2017-Oct-13 19:30N 64°58' E 011°32'611.1
2017-Oct-13 19:00N 64°54' E 011°22'3 6.9
2017-Oct-13 18:30N 64°52' E 011°17'4 8.9
2017-Oct-13 18:00N 64°49' E 011°09'510.0
2017-Oct-13 17:29N 64°44' E 011°07'611.3
2017-Oct-13 17:00N 64°38' E 011°09'510.8
2017-Oct-13 16:30N 64°35' E 011°19'510.6
2017-Oct-13 16:00N 64°31' E 011°27'4 7.4
2017-Oct-13 15:30N 64°27' E 011°29'1 1.0
2017-Oct-13 15:00N 64°28' E 011°30'0 0.0
2017-Oct-13 14:29N 64°28' E 011°30'0 0.0
2017-Oct-13 14:00N 64°28' E 011°30'0 0.0
2017-Oct-13 13:30N 64°28' E 011°30'0 0.0
2017-Oct-13 12:59N 64°28' E 011°30'0 0.0
2017-Oct-13 12:30N 64°28' E 011°30'0 0.0
2017-Oct-13 12:00N 64°28' E 011°30'0 0.0
2017-Oct-13 11:30N 64°28' E 011°30'0 0.0
2017-Oct-13 11:00N 64°28' E 011°30'0 0.0
2017-Oct-13 10:30N 64°28' E 011°30'0 0.0
2017-Oct-13 10:00N 64°28' E 011°30'0 0.0
2017-Oct-13 09:30N 64°28' E 011°30'0 0.0
2017-Oct-13 09:00N 64°28' E 011°30'0 0.5
2017-Oct-13 08:30N 64°27' E 011°30'510.2
2017-Oct-13 08:00N 64°29' E 011°19'710.3
2017-Oct-13 07:20N 64°33' E 011°07'310.5
2017-Oct-13 07:00N 64°36' E 011°01'9 3.3
2017-Oct-13 04:25N 64°42' E 010°47'511.0
2017-Oct-13 03:59N 64°46' E 010°52'3 7.1
2017-Oct-13 03:30N 64°49' E 010°56'0 0.0
2017-Oct-13 03:00N 64°49' E 010°56'0 0.0
2017-Oct-13 02:30N 64°49' E 010°56'0 0.5
2017-Oct-13 01:59N 64°49' E 010°56'2 4.9
2017-Oct-13 01:29N 64°48' E 010°50'3 1.0
2017-Oct-12 22:53N 64°49' E 010°45'3 7.3
2017-Oct-12 22:30N 64°48' E 010°51'510.5
2017-Oct-12 22:00N 64°48' E 011°03'3 5.6
2017-Oct-12 21:30N 64°48' E 011°10'0 0.0
2017-Oct-12 21:00N 64°48' E 011°10'0 0.0
2017-Oct-12 20:30N 64°48' E 011°10'0 0.0
2017-Oct-12 20:00N 64°48' E 011°10'1 2.7
2017-Oct-12 19:30N 64°48' E 011°07'510.3
2017-Oct-12 19:00N 64°52' E 011°14'0 0.2
2017-Oct-12 18:30N 64°52' E 011°15'2 4.2
2017-Oct-12 18:00N 64°53' E 011°18'611.1
2017-Oct-12 17:30N 64°57' E 011°28'511.0
2017-Oct-12 17:00N 65°00' E 011°38'510.8
2017-Oct-12 16:30N 65°05' E 011°46'611.0
2017-Oct-12 15:59N 65°10' E 011°51'511.1
2017-Oct-12 15:30N 65°15' E 011°56'510.9
2017-Oct-12 15:00N 65°20' E 012°01'4 8.5
2017-Oct-12 14:30N 65°24' E 011°58'4 8.7
2017-Oct-12 14:00N 65°28' E 012°00'510.7
2017-Oct-12 13:30N 65°32' E 012°09'1 1.3
2017-Oct-12 12:59N 65°33' E 012°07'0 0.0
2017-Oct-12 12:30N 65°33' E 012°07'2 4.2
2017-Oct-12 12:00N 65°35' E 012°09'510.4
2017-Oct-12 11:30N 65°40' E 012°14'  

Dump ship's entire track history